createdAt,value
2023-05-05T00:02:19.519Z,6.70
2023-05-05T00:04:48.768Z,5.37
2023-05-05T00:07:16.508Z,5.57
2023-05-05T00:09:44.562Z,5.73
2023-05-05T00:12:12.267Z,7.70
2023-05-05T00:14:40.078Z,6.00
2023-05-05T00:17:07.935Z,5.60
2023-05-05T00:19:35.781Z,4.60
2023-05-05T00:22:04.811Z,7.77
2023-05-05T00:24:32.545Z,4.03
2023-05-05T00:27:02.027Z,7.03
2023-05-05T00:29:29.961Z,9.00
2023-05-05T00:31:57.745Z,5.07
2023-05-05T00:34:25.556Z,6.43
2023-05-05T00:36:53.939Z,7.43
2023-05-05T00:39:25.366Z,7.00
2023-05-05T00:41:53.821Z,9.47
2023-05-05T00:44:38.125Z,7.63
2023-05-05T00:47:12.500Z,9.40
2023-05-05T00:49:41.069Z,7.23
2023-05-05T00:52:10.810Z,6.87
2023-05-05T00:54:40.141Z,4.97
2023-05-05T00:57:07.998Z,8.53
2023-05-05T00:59:36.376Z,6.87
2023-05-05T01:02:04.426Z,8.73
2023-05-05T01:04:32.281Z,6.07
2023-05-05T01:07:12.554Z,7.53
2023-05-05T01:09:57.985Z,9.93
2023-05-05T01:12:40.078Z,7.20
2023-05-05T01:15:14.107Z,8.87
2023-05-05T01:17:46.683Z,6.70
2023-05-05T01:20:22.414Z,4.60
2023-05-05T01:22:54.913Z,6.13
2023-05-05T01:25:46.376Z,4.10
2023-05-05T01:28:27.933Z,7.20
2023-05-05T01:31:07.676Z,5.80
2023-05-05T01:33:43.525Z,6.47
2023-05-05T01:36:14.356Z,5.23
2023-05-05T01:38:46.255Z,6.00
2023-05-05T01:41:18.217Z,6.50
2023-05-05T01:43:50.011Z,6.07
2023-05-05T01:46:22.939Z,9.47
2023-05-05T01:48:54.969Z,7.27
2023-05-05T01:51:25.148Z,7.27
2023-05-05T01:53:55.706Z,4.83
2023-05-05T01:56:25.938Z,6.83
2023-05-05T01:58:55.698Z,7.03
2023-05-05T02:01:26.675Z,6.73
2023-05-05T02:03:57.453Z,9.57
2023-05-05T02:06:26.993Z,4.23
2023-05-05T02:08:58.404Z,5.07
2023-05-05T02:11:27.364Z,9.67
2023-05-05T02:13:56.598Z,5.53
2023-05-05T02:16:24.964Z,7.33
2023-05-05T02:18:55.495Z,7.27
2023-05-05T02:21:23.345Z,6.50
2023-05-05T02:23:52.514Z,5.77
2023-05-05T02:26:22.330Z,5.67
2023-05-05T02:28:57.438Z,5.73
2023-05-05T02:31:28.694Z,7.93
2023-05-05T02:34:01.681Z,6.23
2023-05-05T02:36:33.617Z,5.87
2023-05-05T02:39:04.850Z,5.97
2023-05-05T02:41:37.184Z,4.10
2023-05-05T02:44:08.892Z,5.97
2023-05-05T02:46:38.577Z,8.00
2023-05-05T02:49:08.118Z,5.97
2023-05-05T02:51:36.375Z,5.30
2023-05-05T02:54:05.221Z,11.30
2023-05-05T02:56:40.707Z,7.13
2023-05-05T02:59:16.457Z,7.57
2023-05-05T03:01:56.817Z,7.23
2023-05-05T03:04:30.502Z,8.33
2023-05-05T03:07:01.018Z,5.67
2023-05-05T03:09:33.957Z,6.37
2023-05-05T03:12:04.084Z,6.20
2023-05-05T03:14:37.555Z,9.37
2023-05-05T03:17:07.476Z,4.37
2023-05-05T03:19:38.346Z,7.13
2023-05-05T03:22:06.566Z,7.10
2023-05-05T03:24:34.667Z,5.47
2023-05-05T03:27:03.130Z,5.63
2023-05-05T03:29:31.082Z,8.37
2023-05-05T03:32:01.011Z,6.37
2023-05-05T03:34:28.965Z,7.73
2023-05-05T03:36:58.488Z,6.83
2023-05-05T03:39:27.431Z,9.13
2023-05-05T03:41:55.388Z,7.13
2023-05-05T03:44:23.547Z,8.40
2023-05-05T03:46:51.361Z,8.47
2023-05-05T03:49:19.324Z,7.93
2023-05-05T03:51:47.439Z,5.53
2023-05-05T03:54:16.917Z,8.43
2023-05-05T03:56:44.774Z,5.23
2023-05-05T03:59:12.706Z,11.53
2023-05-05T04:01:40.602Z,9.40
2023-05-05T04:04:09.679Z,9.10
2023-05-05T04:06:37.558Z,9.87
2023-05-05T04:09:05.808Z,7.73
2023-05-05T04:11:35.346Z,9.10
2023-05-05T04:14:03.531Z,6.77
2023-05-05T04:16:32.115Z,7.13
2023-05-05T04:19:00.215Z,12.10
2023-05-05T04:21:28.253Z,10.70
2023-05-05T04:23:56.504Z,9.53
2023-05-05T04:26:24.285Z,5.70
2023-05-05T04:28:53.801Z,11.43
2023-05-05T04:31:21.831Z,11.67
2023-05-05T04:33:49.784Z,6.30
2023-05-05T04:36:19.044Z,7.53
2023-05-05T04:38:47.034Z,5.47
2023-05-05T04:41:15.085Z,8.17
2023-05-05T04:43:42.842Z,7.17
2023-05-05T04:46:11.945Z,7.37
2023-05-05T04:48:39.933Z,11.17
2023-05-05T04:51:08.562Z,7.33
2023-05-05T04:53:36.678Z,8.20
2023-05-05T04:56:04.792Z,11.60
2023-05-05T04:58:32.799Z,8.47
2023-05-05T05:01:00.780Z,7.53
2023-05-05T05:03:32.323Z,6.93
2023-05-05T05:06:00.455Z,7.87
2023-05-05T05:08:28.600Z,7.27
2023-05-05T05:10:57.717Z,12.00
2023-05-05T05:13:25.968Z,7.97
2023-05-05T05:15:54.256Z,5.80
2023-05-05T05:18:22.690Z,8.40
2023-05-05T05:20:52.037Z,8.97
2023-05-05T05:23:19.991Z,7.70
2023-05-05T05:25:48.507Z,7.90
2023-05-05T05:28:16.383Z,10.60
2023-05-05T05:30:44.355Z,6.80
2023-05-05T05:33:12.307Z,9.60
2023-05-05T05:35:40.497Z,7.93
2023-05-05T05:38:10.037Z,7.47
2023-05-05T05:40:38.539Z,7.13
2023-05-05T05:43:06.480Z,9.33
2023-05-05T05:45:34.518Z,6.30
2023-05-05T05:48:02.450Z,5.30
2023-05-05T05:50:30.399Z,9.77
2023-05-05T05:52:58.105Z,8.60
2023-05-05T05:55:28.532Z,6.20
2023-05-05T05:57:56.509Z,8.37
2023-05-05T06:00:24.963Z,8.00
2023-05-05T06:02:53.302Z,6.10
2023-05-05T06:05:21.437Z,8.50
2023-05-05T06:07:49.435Z,8.07
2023-05-05T06:10:27.546Z,6.70
2023-05-05T06:12:57.848Z,10.10
2023-05-05T06:15:26.134Z,8.50
2023-05-05T06:17:54.686Z,7.37
2023-05-05T06:20:22.815Z,8.20
2023-05-05T06:22:50.788Z,6.37
2023-05-05T06:25:18.837Z,7.03
2023-05-05T06:27:47.062Z,5.00
2023-05-05T06:30:16.695Z,8.90
2023-05-05T06:32:44.624Z,5.90
2023-05-05T06:35:12.579Z,6.93
2023-05-05T06:37:41.357Z,8.40
2023-05-05T06:40:10.770Z,7.57
2023-05-05T06:42:38.819Z,7.23
2023-05-05T06:45:07.791Z,9.77
2023-05-05T06:47:37.138Z,6.77
2023-05-05T06:50:05.683Z,5.83
2023-05-05T06:52:33.594Z,8.13
2023-05-05T06:55:01.586Z,9.27
2023-05-05T06:57:29.484Z,6.70
2023-05-05T06:59:57.407Z,6.73
2023-05-05T07:02:26.909Z,7.10
2023-05-05T07:04:57.355Z,10.47
2023-05-05T07:07:25.522Z,7.07
2023-05-05T07:09:54.639Z,7.13
2023-05-05T07:12:22.668Z,9.47
2023-05-05T07:14:50.552Z,5.30
2023-05-05T07:17:18.363Z,10.53
2023-05-05T07:19:46.136Z,8.30
2023-05-05T07:22:15.504Z,9.07
2023-05-05T07:24:43.254Z,7.37
2023-05-05T07:27:11.150Z,13.27
2023-05-05T07:29:38.829Z,4.80
2023-05-05T07:32:07.672Z,13.17
2023-05-05T07:34:37.862Z,10.00
2023-05-05T07:37:05.816Z,11.00
2023-05-05T07:39:35.272Z,6.63
2023-05-05T07:42:03.046Z,7.63
2023-05-05T07:44:31.694Z,8.53
2023-05-05T07:47:00.782Z,7.30
2023-05-05T07:49:28.716Z,7.77
2023-05-05T07:51:57.245Z,10.47
2023-05-05T07:54:25.244Z,9.00
2023-05-05T07:56:54.628Z,5.97
2023-05-05T07:59:22.607Z,8.17
2023-05-05T08:01:50.791Z,9.40
2023-05-05T08:04:19.200Z,12.27
2023-05-05T08:06:46.872Z,9.37
2023-05-05T08:09:14.872Z,7.77
2023-05-05T08:11:42.660Z,6.03
2023-05-05T08:14:11.971Z,6.87
2023-05-05T08:16:39.719Z,11.00
2023-05-05T08:19:17.721Z,8.87
2023-05-05T08:21:53.364Z,7.60
2023-05-05T08:24:21.076Z,11.20
2023-05-05T08:26:49.496Z,9.77
2023-05-05T08:29:18.753Z,10.17
2023-05-05T08:31:46.678Z,5.97
2023-05-05T08:34:14.536Z,10.23
2023-05-05T08:36:42.367Z,11.00
2023-05-05T08:39:10.236Z,10.07
2023-05-05T08:41:38.191Z,11.93
2023-05-05T08:44:06.049Z,9.40
2023-05-05T08:46:37.383Z,8.20
2023-05-05T08:49:06.829Z,8.57
2023-05-05T08:51:42.244Z,7.57
2023-05-05T08:54:15.979Z,10.97
2023-05-05T08:56:45.507Z,7.10
2023-05-05T08:59:14.468Z,8.83
2023-05-05T09:01:45.870Z,9.43
2023-05-05T09:04:13.647Z,9.07
2023-05-05T09:06:41.821Z,12.70
2023-05-05T09:09:10.302Z,7.23
2023-05-05T09:11:39.406Z,9.37
2023-05-05T09:14:07.199Z,10.10
2023-05-05T09:16:35.098Z,12.80
2023-05-05T09:19:05.002Z,9.83
2023-05-05T09:21:33.386Z,8.80
2023-05-05T09:24:09.564Z,10.53
2023-05-05T09:26:38.527Z,11.20
2023-05-05T09:29:07.112Z,7.30
2023-05-05T09:31:37.622Z,10.23
2023-05-05T09:34:16.762Z,9.23
2023-05-05T09:36:47.851Z,8.33
2023-05-05T09:39:17.962Z,10.93
2023-05-05T09:41:46.908Z,10.60
2023-05-05T09:44:16.884Z,11.07
2023-05-05T09:46:52.498Z,8.63
2023-05-05T09:49:25.359Z,8.20
2023-05-05T09:51:54.309Z,8.67
2023-05-05T09:54:26.208Z,9.10
2023-05-05T09:56:54.614Z,9.53
2023-05-05T09:59:23.286Z,8.97
2023-05-05T10:01:52.246Z,10.10
2023-05-05T10:04:29.549Z,9.33
2023-05-05T10:06:58.788Z,8.10
2023-05-05T10:09:27.313Z,7.87
2023-05-05T10:11:58.859Z,8.30
2023-05-05T10:14:28.677Z,8.57
2023-05-05T10:16:56.987Z,9.00
2023-05-05T10:19:28.944Z,8.60
2023-05-05T10:22:03.738Z,10.97
2023-05-05T10:24:38.325Z,10.23
2023-05-05T10:27:13.191Z,6.33
2023-05-05T10:29:49.177Z,6.87
2023-05-05T10:32:51.121Z,7.13
2023-05-05T10:35:15.015Z,9.70
2023-05-05T10:37:43.374Z,11.73
2023-05-05T10:40:11.849Z,10.37
2023-05-05T10:42:41.181Z,7.37
2023-05-05T10:45:09.762Z,7.23
2023-05-05T10:47:40.280Z,7.53
2023-05-05T10:50:17.361Z,8.70
2023-05-05T10:52:53.272Z,7.13
2023-05-05T10:55:29.525Z,9.23
2023-05-05T10:57:57.282Z,10.40
2023-05-05T11:00:53.051Z,11.30
2023-05-05T11:03:22.517Z,11.60
2023-05-05T11:06:13.792Z,10.47
2023-05-05T11:08:43.440Z,9.20
2023-05-05T11:11:12.281Z,10.00
2023-05-05T11:13:41.571Z,9.27
2023-05-05T11:16:44.221Z,8.33
2023-05-05T11:19:47.725Z,13.70
2023-05-05T11:22:17.738Z,10.20
2023-05-05T11:24:46.305Z,9.97
2023-05-05T11:27:14.077Z,8.00
2023-05-05T11:30:08.778Z,10.47
2023-05-05T11:32:37.053Z,10.77
2023-05-05T11:35:06.184Z,14.57
2023-05-05T11:37:37.627Z,10.13
2023-05-05T11:40:18.571Z,9.07
2023-05-05T11:42:46.346Z,9.47
2023-05-05T11:45:22.703Z,8.60
2023-05-05T11:47:50.614Z,11.67
2023-05-05T11:50:21.402Z,11.17
2023-05-05T11:52:51.536Z,10.40
2023-05-05T11:55:23.218Z,8.90
2023-05-05T11:57:51.343Z,9.03
2023-05-05T12:00:19.827Z,9.00
2023-05-05T12:02:47.872Z,8.43
2023-05-05T12:05:21.213Z,7.07
2023-05-05T12:07:58.733Z,8.03
2023-05-05T12:10:27.079Z,10.60
2023-05-05T12:12:59.328Z,9.13
2023-05-05T12:15:31.637Z,11.80
2023-05-05T12:18:02.096Z,8.17
2023-05-05T12:20:32.354Z,10.87
2023-05-05T12:23:05.205Z,9.63
2023-05-05T12:25:38.277Z,8.87
2023-05-05T12:28:10.473Z,8.97
2023-05-05T12:30:38.438Z,9.60
2023-05-05T12:33:08.187Z,11.23
2023-05-05T12:35:36.568Z,10.00
2023-05-05T12:38:05.872Z,13.23
2023-05-05T12:40:47.602Z,11.03
2023-05-05T12:43:26.592Z,12.43
2023-05-05T12:46:15.679Z,10.20
2023-05-05T12:48:47.917Z,11.70
2023-05-05T12:51:18.418Z,12.30
2023-05-05T12:53:48.909Z,9.37
2023-05-05T12:56:34.218Z,10.17
2023-05-05T12:59:02.355Z,11.30
2023-05-05T13:01:30.626Z,9.23
2023-05-05T13:04:12.192Z,12.87
2023-05-05T13:06:41.286Z,11.20
2023-05-05T13:09:11.193Z,8.43
2023-05-05T13:11:39.668Z,9.93
2023-05-05T13:14:08.617Z,10.33
2023-05-05T13:16:36.369Z,7.53
2023-05-05T13:19:04.541Z,13.87
2023-05-05T13:21:32.686Z,12.33
2023-05-05T13:24:18.317Z,9.63
2023-05-05T13:26:51.016Z,10.97
2023-05-05T13:29:18.848Z,9.83
2023-05-05T13:31:47.095Z,13.03
2023-05-05T13:34:15.037Z,12.40
2023-05-05T13:36:42.801Z,11.47
2023-05-05T13:39:11.271Z,16.30
2023-05-05T13:41:39.295Z,12.30
2023-05-05T13:44:08.451Z,11.83
2023-05-05T13:46:36.332Z,10.47
2023-05-05T13:49:04.485Z,10.10
2023-05-05T13:51:34.678Z,12.00
2023-05-05T13:54:03.007Z,9.73
2023-05-05T13:56:31.245Z,8.70
2023-05-05T13:58:59.628Z,10.90
2023-05-05T14:01:29.146Z,10.63
2023-05-05T14:03:57.557Z,10.97
2023-05-05T14:06:26.044Z,9.90
2023-05-05T14:08:53.875Z,10.77
2023-05-05T14:11:21.630Z,9.13
2023-05-05T14:13:49.697Z,14.60
2023-05-05T14:16:18.042Z,8.33
2023-05-05T14:18:47.538Z,8.33
2023-05-05T14:21:15.439Z,12.13
2023-05-05T14:23:43.272Z,10.27
2023-05-05T14:26:11.594Z,11.13
2023-05-05T14:28:39.436Z,9.30
2023-05-05T14:31:07.414Z,7.93
2023-05-05T14:33:35.317Z,10.20
2023-05-05T14:36:04.832Z,9.63
2023-05-05T14:38:32.694Z,9.20
2023-05-05T14:41:01.000Z,8.23
2023-05-05T14:43:28.808Z,13.20
2023-05-05T14:45:58.261Z,9.57
2023-05-05T14:48:26.239Z,9.83
2023-05-05T14:50:54.618Z,11.60
2023-05-05T14:53:23.855Z,13.30
2023-05-05T14:55:51.785Z,8.97
2023-05-05T14:58:22.468Z,11.43
2023-05-05T15:00:50.407Z,11.30
2023-05-05T15:03:18.543Z,11.07
2023-05-05T15:05:48.587Z,11.77
2023-05-05T15:08:18.628Z,11.50
2023-05-05T15:10:47.972Z,10.97
2023-05-05T15:13:15.951Z,9.67
2023-05-05T15:15:44.997Z,9.77
2023-05-05T15:18:13.636Z,10.80
2023-05-05T15:20:41.452Z,15.73
2023-05-05T15:23:09.546Z,11.70
2023-05-05T15:25:37.692Z,12.47
2023-05-05T15:28:07.012Z,12.97
2023-05-05T15:30:35.041Z,10.23
2023-05-05T15:33:02.954Z,9.90
2023-05-05T15:35:37.465Z,8.27
2023-05-05T15:38:05.528Z,9.70
2023-05-05T15:40:33.490Z,12.27
2023-05-05T15:43:01.364Z,11.77
2023-05-05T15:45:31.624Z,15.03
2023-05-05T15:48:00.527Z,10.13
2023-05-05T15:50:28.315Z,9.80
2023-05-05T15:52:56.908Z,11.47
2023-05-05T15:55:25.052Z,13.60
2023-05-05T15:57:53.078Z,11.07
2023-05-05T16:00:21.702Z,12.83
2023-05-05T16:02:51.433Z,14.63
2023-05-05T16:05:21.442Z,12.13
2023-05-05T16:07:51.226Z,10.83
2023-05-05T16:10:20.524Z,16.63
2023-05-05T16:12:48.913Z,12.60
2023-05-05T16:15:17.013Z,12.50
2023-05-05T16:17:45.222Z,16.77
2023-05-05T16:20:17.823Z,14.37
2023-05-05T16:22:46.017Z,15.53
2023-05-05T16:25:14.160Z,14.07
2023-05-05T16:27:42.701Z,12.87
2023-05-05T16:30:13.089Z,15.43
2023-05-05T16:32:41.158Z,16.60
2023-05-05T16:35:14.501Z,19.63
2023-05-05T16:37:44.052Z,13.87
2023-05-05T16:40:13.315Z,15.80
2023-05-05T16:42:44.244Z,15.13
2023-05-05T16:45:12.815Z,14.13
2023-05-05T16:47:40.826Z,18.53
2023-05-05T16:50:09.365Z,14.37
2023-05-05T16:52:37.367Z,13.87
2023-05-05T16:55:07.080Z,16.13
2023-05-05T16:57:35.074Z,16.43
2023-05-05T17:00:03.338Z,15.23
2023-05-05T17:02:31.254Z,20.17
2023-05-05T17:04:59.614Z,15.60
2023-05-05T17:07:27.413Z,16.67
2023-05-05T17:09:55.126Z,16.50
2023-05-05T17:12:24.840Z,19.20
2023-05-05T17:14:52.518Z,21.33
2023-05-05T17:17:20.807Z,19.27
2023-05-05T17:19:48.524Z,25.70
2023-05-05T17:22:16.455Z,16.73
2023-05-05T17:24:44.152Z,17.37
2023-05-05T17:27:13.561Z,16.87
2023-05-05T17:29:42.630Z,19.07
2023-05-05T17:32:10.629Z,17.33
2023-05-05T17:34:38.378Z,16.23
2023-05-05T17:37:06.089Z,15.80
2023-05-05T17:39:34.007Z,17.87
2023-05-05T17:42:01.762Z,16.70
2023-05-05T17:44:31.342Z,15.37
2023-05-05T17:47:00.442Z,15.20
2023-05-05T17:49:28.172Z,13.10
2023-05-05T17:51:55.947Z,14.23
2023-05-05T17:54:23.657Z,13.10
2023-05-05T17:56:51.526Z,15.50
2023-05-05T17:59:19.325Z,14.17
2023-05-05T18:01:47.236Z,17.90
2023-05-05T18:04:16.441Z,14.10
2023-05-05T18:06:44.452Z,14.73
2023-05-05T18:09:12.636Z,16.33
2023-05-05T18:11:40.395Z,16.73
2023-05-05T18:14:08.119Z,22.90
2023-05-05T18:16:36.048Z,20.13
2023-05-05T18:19:04.584Z,15.50
2023-05-05T18:21:33.764Z,13.83
2023-05-05T18:24:15.715Z,10.80
2023-05-05T18:26:48.694Z,10.23
2023-05-05T18:29:16.618Z,8.60
2023-05-05T18:31:44.777Z,10.17
2023-05-05T18:34:12.546Z,8.80
2023-05-05T18:36:41.709Z,10.20
2023-05-05T18:39:10.085Z,12.20
2023-05-05T18:41:38.058Z,9.73
2023-05-05T18:44:05.815Z,9.93
2023-05-05T18:46:33.669Z,10.13
2023-05-05T18:49:01.608Z,11.73
2023-05-05T18:51:29.419Z,11.40
2023-05-05T18:53:58.876Z,11.57
2023-05-05T18:56:26.648Z,10.07
2023-05-05T18:58:54.410Z,11.40
2023-05-05T19:01:22.733Z,10.03
2023-05-05T19:03:50.947Z,10.57
2023-05-05T19:06:18.788Z,9.07
2023-05-05T19:08:47.111Z,9.30
2023-05-05T19:11:16.317Z,9.50
2023-05-05T19:13:44.072Z,8.57
2023-05-05T19:16:12.428Z,9.10
2023-05-05T19:18:40.567Z,9.23
2023-05-05T19:21:08.342Z,9.43
2023-05-05T19:23:38.099Z,7.30
2023-05-05T19:26:05.948Z,8.07
2023-05-05T19:28:35.128Z,6.13
2023-05-05T19:31:03.284Z,6.00
2023-05-05T19:33:31.089Z,6.60
2023-05-05T19:35:58.816Z,5.00
2023-05-05T19:38:27.659Z,5.23
2023-05-05T19:40:55.552Z,4.57
2023-05-05T19:43:23.838Z,4.57
2023-05-05T19:45:53.708Z,4.40
2023-05-05T19:48:21.683Z,5.00
2023-05-05T19:50:49.684Z,4.47
2023-05-05T19:53:17.429Z,4.50
2023-05-05T19:55:46.097Z,3.83
2023-05-05T19:58:14.086Z,5.57
2023-05-05T20:00:42.582Z,3.93
2023-05-05T20:03:12.273Z,5.97
2023-05-05T20:05:41.030Z,4.70
2023-05-05T20:08:09.717Z,4.83
2023-05-05T20:10:37.883Z,4.20
2023-05-05T20:13:06.029Z,4.83
2023-05-05T20:15:34.660Z,4.60
2023-05-05T20:18:02.633Z,5.07
2023-05-05T20:20:32.702Z,5.23
2023-05-05T20:23:00.881Z,5.07
2023-05-05T20:25:29.056Z,5.00
2023-05-05T20:27:56.904Z,5.90
2023-05-05T20:30:24.897Z,3.70
2023-05-05T20:32:53.678Z,5.93
2023-05-05T20:35:21.816Z,4.83
2023-05-05T20:37:51.465Z,4.73
2023-05-05T20:40:19.549Z,5.43
2023-05-05T20:42:47.417Z,5.80
2023-05-05T20:45:15.567Z,5.47
2023-05-05T20:47:43.742Z,5.17
2023-05-05T20:50:12.432Z,5.77
2023-05-05T20:52:40.696Z,5.77
2023-05-05T20:55:10.369Z,6.17
2023-05-05T20:57:38.245Z,8.63
2023-05-05T21:00:07.796Z,7.67
2023-05-05T21:02:36.294Z,7.07
2023-05-05T21:05:05.354Z,6.77
2023-05-05T21:07:34.278Z,7.93
2023-05-05T21:10:02.368Z,7.80
2023-05-05T21:12:31.971Z,8.03
2023-05-05T21:14:59.901Z,6.97
2023-05-05T21:17:28.125Z,9.23
2023-05-05T21:19:56.820Z,7.87
2023-05-05T21:22:25.006Z,7.30
2023-05-05T21:24:52.999Z,8.87
2023-05-05T21:27:22.233Z,7.70
2023-05-05T21:29:52.881Z,7.13
2023-05-05T21:32:20.721Z,7.77
2023-05-05T21:34:48.473Z,6.87
2023-05-05T21:37:16.332Z,7.03
2023-05-05T21:39:44.632Z,8.10
2023-05-05T21:42:12.460Z,8.80
2023-05-05T21:44:40.200Z,8.50
2023-05-05T21:47:10.554Z,9.33
2023-05-05T21:49:38.396Z,9.67
2023-05-05T21:52:06.093Z,9.10
2023-05-05T21:54:33.845Z,9.20
2023-05-05T21:57:02.822Z,9.20
2023-05-05T21:59:30.721Z,10.13
2023-05-05T22:01:58.672Z,7.77
2023-05-05T22:04:28.189Z,7.63
2023-05-05T22:06:56.486Z,8.60
2023-05-05T22:09:24.492Z,7.07
2023-05-05T22:11:53.708Z,9.10
2023-05-05T22:14:21.607Z,9.20
2023-05-05T22:16:49.388Z,8.47
2023-05-05T22:19:17.360Z,8.47
2023-05-05T22:21:46.484Z,8.60
2023-05-05T22:24:14.273Z,8.90
2023-05-05T22:26:43.496Z,9.70
2023-05-05T22:29:11.536Z,9.60
2023-05-05T22:31:39.534Z,9.97
2023-05-05T22:34:07.919Z,9.90
2023-05-05T22:36:35.751Z,7.80
2023-05-05T22:39:05.143Z,9.73
2023-05-05T22:41:32.906Z,10.20
2023-05-05T22:44:00.716Z,10.10
2023-05-05T22:46:28.615Z,10.10
2023-05-05T22:48:56.532Z,9.83
2023-05-05T22:51:24.398Z,9.70
2023-05-05T22:53:52.282Z,10.20
2023-05-05T22:56:21.389Z,10.40
2023-05-05T22:58:49.097Z,11.93
2023-05-05T23:01:16.848Z,9.77
2023-05-05T23:03:44.737Z,10.07
2023-05-05T23:06:12.420Z,9.87
2023-05-05T23:08:41.633Z,9.33
2023-05-05T23:11:09.429Z,9.70
2023-05-05T23:13:38.692Z,9.90
2023-05-05T23:16:07.047Z,8.97
2023-05-05T23:18:34.935Z,8.50
2023-05-05T23:21:02.781Z,9.20
2023-05-05T23:23:31.148Z,8.90
2023-05-05T23:25:59.044Z,9.17
2023-05-05T23:28:26.762Z,9.27
2023-05-05T23:30:55.956Z,8.83
2023-05-05T23:33:23.809Z,8.97
2023-05-05T23:35:51.563Z,8.77
2023-05-05T23:38:19.532Z,8.40
2023-05-05T23:40:47.453Z,8.57
2023-05-05T23:43:15.455Z,8.73
2023-05-05T23:45:43.207Z,8.23
2023-05-05T23:48:12.926Z,8.07
2023-05-05T23:50:40.675Z,9.43
2023-05-05T23:53:08.382Z,10.07
2023-05-05T23:55:36.133Z,11.83
2023-05-05T23:58:03.858Z,13.03
